Saint Francisville, IL

8:59 PM CDT on August 29, 2016 (GMT -0500)
Mount Carmel Municipal

Weather History for KAJG - April, 2013

Change the Weather History Date:

Friday, April 19, 2013

  Actual Average (KLWV) Record (KLWV)
Temperature  
Mean Temperature 42 °F 57 °F  
Max Temperature 46 °F 68 °F 82 °F (2002)
Min Temperature 37 °F 47 °F 37 °F (1999)
Degree Days  
Heating Degree Days 24 9  
Month to date heating degree days 222  
Since 1 July heating degree days 4519  
Cooling Degree Days 0 1  
Month to date cooling degree days 13  
Year to date cooling degree days 15  
Moisture  
Dew Point 34 °F    
Average Humidity 70    
Maximum Humidity 93    
Minimum Humidity 57    
Precipitation  
Precipitation 0.03 in 0.14 in 2.89 in (2006)
Month to date precipitation 2.22  
Year to date precipitation 10.04  
Sea Level Pressure  
Sea Level Pressure 29.87 in    
Wind  
Wind Speed 17 mph (West)    
Max Wind Speed 25 mph    
Max Gust Speed 33 mph    
Visibility 10 miles    
Events Rain    
T = Trace of Precipitation, MM = Missing Value Source: NWS Daily Summary

Daily Weather History Graph

Daily Weather History Graph

Search for Another Location

Airport or City:

Trip Planner

Search our weather history database for the weather conditions in past years. The results will help you decide how hot, cold, wet, or windy it might be!

Date:

Astronomy

Apr. 19, 2013 Rise Set
Actual Time 6:08 AM CDT 7:31 PM CDT
Civil Twilight 5:41 AM CDT 7:59 PM CDT
Nautical Twilight 5:07 AM CDT 8:32 PM CDT
Astronomical Twilight 4:33 AM CDT 9:07 PM CDT
Moon 1:20 PM CDT (4/19) 2:19 AM CDT (4/19)
Length of Visible Light 14h 18m
Length of Day
13h 22m
First Quarter, 62% of the Moon is Illuminated
Apr 19
First Quarter
Apr 25
Full
May 2
Last Quarter
May 9
New
May 17
First Quarter

Hourly Weather History & Observations

Time (CDT) Temp. Windchill Dew Point Humidity Pressure Visibility Wind Dir Wind Speed Gust Speed Precip Events Conditions
12:15 AM 46.4 °F 39.0 °F 42.8 °F 87% 29.69 in 7.0 mi WNW 19.6 mph 24.2 mph N/A Rain Rain
12:35 AM 46.4 °F 40.7 °F 42.8 °F 87% 29.68 in 5.0 mi WNW 12.7 mph - N/A Rain Rain
12:55 AM 44.6 °F 38.4 °F 42.8 °F 93% 29.67 in 7.0 mi WNW 12.7 mph - N/A Rain Light Rain
1:15 AM 44.6 °F 37.2 °F 41.0 °F 87% 29.70 in 7.0 mi West 17.3 mph 24.2 mph N/A Rain Rain
1:35 AM 44.6 °F 38.1 °F 41.0 °F 87% 29.69 in 10.0 mi West 13.8 mph - N/A   Overcast
1:55 AM 44.6 °F 37.8 °F 41.0 °F 87% 29.70 in 10.0 mi WNW 15.0 mph - 0.01 in   Overcast
2:15 AM 44.6 °F 36.9 °F 37.4 °F 76% 29.69 in 10.0 mi WNW 18.4 mph - N/A   Mostly Cloudy
2:35 AM 44.6 °F 37.2 °F 37.4 °F 76% 29.70 in 10.0 mi NW 17.3 mph 33.4 mph N/A   Overcast
2:55 AM 44.6 °F 36.9 °F 35.6 °F 71% 29.71 in 10.0 mi WNW 18.4 mph 23.0 mph N/A   Overcast
3:15 AM 44.6 °F 35.9 °F 35.6 °F 71% 29.72 in 10.0 mi WNW 23.0 mph 28.8 mph N/A   Overcast
3:35 AM 42.8 °F 35.1 °F 35.6 °F 76% 29.72 in 10.0 mi WNW 16.1 mph - N/A   Overcast
3:55 AM 42.8 °F 34.3 °F 35.6 °F 76% 29.73 in 10.0 mi WNW 19.6 mph 24.2 mph N/A Rain Rain
4:15 AM 42.8 °F 36.2 °F 37.4 °F 81% 29.73 in 10.0 mi West 12.7 mph - N/A   Overcast
4:35 AM 42.8 °F 34.5 °F 35.6 °F 76% 29.74 in 10.0 mi West 18.4 mph 24.2 mph N/A   Overcast
4:55 AM 42.8 °F 33.5 °F 33.8 °F 70% 29.75 in 10.0 mi West 23.0 mph 29.9 mph N/A   Overcast
5:15 AM 42.8 °F 33.8 °F 32.0 °F 66% 29.76 in 10.0 mi West 21.9 mph 26.5 mph N/A   Overcast
5:55 AM 42.8 °F 34.3 °F 32.0 °F 66% 29.77 in 10.0 mi West 19.6 mph - N/A   Overcast
6:15 AM 41.0 °F 32.2 °F 32.0 °F 70% 29.78 in 10.0 mi West 18.4 mph 25.3 mph N/A   Overcast
6:35 AM 42.8 °F 34.5 °F 32.0 °F 66% 29.79 in 10.0 mi West 18.4 mph 23.0 mph N/A   Overcast
6:55 AM 41.0 °F 32.8 °F 33.8 °F 76% 29.79 in 10.0 mi West 16.1 mph 23.0 mph N/A   Overcast
7:15 AM 41.0 °F 32.5 °F 32.0 °F 70% 29.81 in 10.0 mi West 17.3 mph 24.2 mph N/A   Overcast
7:35 AM 41.0 °F 31.1 °F 32.0 °F 70% 29.81 in 10.0 mi West 23.0 mph - N/A   Overcast
7:55 AM 41.0 °F 31.9 °F 32.0 °F 70% 29.83 in 10.0 mi West 19.6 mph - N/A   Overcast
8:15 AM 41.0 °F 32.5 °F 32.0 °F 70% 29.83 in 10.0 mi West 17.3 mph 21.9 mph N/A   Overcast
8:35 AM 42.8 °F 35.8 °F 32.0 °F 66% 29.84 in 10.0 mi West 13.8 mph - N/A   Overcast
8:55 AM 41.0 °F 33.5 °F 32.0 °F 70% 29.85 in 10.0 mi WNW 13.8 mph 26.5 mph N/A   Overcast
9:15 AM 41.0 °F 33.9 °F 33.8 °F 76% 29.85 in 10.0 mi West 12.7 mph - N/A   Overcast
9:35 AM 41.0 °F 33.9 °F 33.8 °F 76% 29.85 in 10.0 mi West 12.7 mph 19.6 mph N/A   Overcast
9:55 AM 42.8 °F 34.3 °F 32.0 °F 66% 29.85 in 10.0 mi West 19.6 mph 24.2 mph 0.01 in   Overcast
10:15 AM 42.8 °F 34.5 °F 32.0 °F 66% 29.85 in 10.0 mi WSW 18.4 mph 24.2 mph N/A   Overcast
10:35 AM 42.8 °F 33.8 °F 32.0 °F 66% 29.85 in 10.0 mi West 21.9 mph 27.6 mph N/A   Overcast
10:55 AM 42.8 °F 34.0 °F 32.0 °F 66% 29.87 in 10.0 mi West 20.7 mph 26.5 mph N/A   Overcast
11:15 AM 42.8 °F 34.0 °F 32.0 °F 66% 29.87 in 10.0 mi WSW 20.7 mph - N/A   Overcast
11:35 AM 42.8 °F 33.3 °F 32.0 °F 66% 29.87 in 10.0 mi West 24.2 mph 29.9 mph N/A   Overcast
11:55 AM 42.8 °F 34.3 °F 32.0 °F 66% 29.88 in 10.0 mi West 19.6 mph - N/A   Overcast
12:15 PM 42.8 °F 34.0 °F 32.0 °F 66% 29.88 in 10.0 mi West 20.7 mph 24.2 mph N/A   Overcast
12:35 PM 42.8 °F 34.0 °F 32.0 °F 66% 29.89 in 10.0 mi West 20.7 mph 28.8 mph N/A   Overcast
12:55 PM 44.6 °F 35.5 °F 33.8 °F 66% 29.89 in 10.0 mi West 25.3 mph 28.8 mph N/A   Overcast
1:15 PM 44.6 °F 35.7 °F 32.0 °F 61% 29.89 in 10.0 mi West 24.2 mph 31.1 mph N/A   Overcast
1:35 PM 44.6 °F 36.1 °F 32.0 °F 61% 29.89 in 10.0 mi West 21.9 mph 27.6 mph N/A   Overcast
1:55 PM 42.8 °F 33.8 °F 32.0 °F 66% 29.90 in 10.0 mi West 21.9 mph 25.3 mph N/A   Overcast
2:15 PM 44.6 °F 36.1 °F 33.8 °F 66% 29.90 in 10.0 mi West 21.9 mph - N/A   Overcast
2:35 PM 42.8 °F 34.3 °F 32.0 °F 66% 29.90 in 10.0 mi WSW 19.6 mph 29.9 mph N/A   Overcast
2:55 PM 44.6 °F 36.1 °F 32.0 °F 61% 29.90 in 10.0 mi West 21.9 mph - N/A   Overcast
3:15 PM 44.6 °F 36.1 °F 32.0 °F 61% 29.91 in 10.0 mi West 21.9 mph 26.5 mph N/A   Overcast
3:35 PM 44.6 °F 36.9 °F 32.0 °F 61% 29.90 in 10.0 mi West 18.4 mph 29.9 mph N/A   Overcast
3:55 PM 44.6 °F 37.4 °F 32.0 °F 61% 29.91 in 10.0 mi WSW 16.1 mph - N/A   Overcast
4:15 PM 46.4 °F 38.3 °F 32.0 °F 57% 29.91 in 10.0 mi West 23.0 mph 27.6 mph N/A   Overcast
4:35 PM 46.4 °F 38.7 °F 32.0 °F 57% 29.92 in 10.0 mi West 20.7 mph 27.6 mph N/A   Overcast
4:55 PM 46.4 °F 39.2 °F 32.0 °F 57% 29.93 in 10.0 mi West 18.4 mph - N/A   Overcast
5:15 PM 46.4 °F 39.0 °F 32.0 °F 57% 29.93 in 10.0 mi West 19.6 mph 24.2 mph N/A   Overcast
5:35 PM 46.4 °F 39.0 °F 33.8 °F 62% 29.94 in 10.0 mi WSW 19.6 mph - N/A   Overcast
5:55 PM 46.4 °F 40.4 °F 33.8 °F 62% 29.95 in 10.0 mi West 13.8 mph - N/A   Overcast
6:15 PM 46.4 °F 40.7 °F 33.8 °F 62% 29.95 in 10.0 mi WSW 12.7 mph - 0.01 in   Overcast
6:35 PM 46.4 °F 40.4 °F 33.8 °F 62% 29.96 in 10.0 mi West 13.8 mph 19.6 mph 0.01 in   Mostly Cloudy
6:55 PM 46.4 °F 41.1 °F 33.8 °F 62% 29.96 in 10.0 mi WSW 11.5 mph - 0.01 in   Mostly Cloudy
7:15 PM 44.6 °F 37.8 °F 33.8 °F 66% 29.97 in 10.0 mi West 15.0 mph 20.7 mph N/A Rain Light Rain
7:35 PM 44.6 °F 39.2 °F 33.8 °F 66% 29.98 in 10.0 mi West 10.4 mph - N/A   Mostly Cloudy
7:55 PM 44.6 °F 39.7 °F 33.8 °F 66% 29.99 in 10.0 mi WSW 9.2 mph - N/A   Scattered Clouds
8:15 PM 44.6 °F 39.2 °F 33.8 °F 66% 29.99 in 10.0 mi West 10.4 mph - N/A   Scattered Clouds
8:35 PM 44.6 °F 40.2 °F 35.6 °F 71% 30.00 in 10.0 mi West 8.1 mph - N/A   Mostly Cloudy
8:55 PM 44.6 °F 40.2 °F 33.8 °F 66% 30.02 in 10.0 mi WSW 8.1 mph - N/A   Overcast
9:15 PM 44.6 °F 42.2 °F 35.6 °F 71% 30.03 in 10.0 mi NNW 4.6 mph - N/A   Overcast
9:35 PM 44.6 °F 43.1 °F 35.6 °F 71% 30.04 in 10.0 mi NNW 3.5 mph - N/A   Overcast
9:55 PM 44.6 °F 42.2 °F 35.6 °F 71% 30.04 in 10.0 mi NW 4.6 mph - N/A   Scattered Clouds
10:15 PM 42.8 °F 41.1 °F 33.8 °F 70% 30.05 in 10.0 mi WNW 3.5 mph - N/A   Clear
10:35 PM 42.8 °F 41.1 °F 35.6 °F 76% 30.05 in 10.0 mi West 3.5 mph - N/A   Clear
10:55 PM 41.0 °F 39.0 °F 35.6 °F 81% 30.05 in 10.0 mi West 3.5 mph - N/A   Clear
11:15 PM 41.0 °F 38.0 °F 33.8 °F 76% 30.05 in 10.0 mi SW 4.6 mph - N/A   Clear
11:35 PM 37.4 °F 33.8 °F 33.8 °F 87% 30.05 in 10.0 mi WSW 4.6 mph - N/A   Clear
11:55 PM 37.4 °F - 33.8 °F 87% 30.06 in 10.0 mi Calm Calm - N/A   Clear